sensor_id;sensor_type;location;lat;lon;timestamp;P1;durP1;ratioP1;P2;durP2;ratioP2
13040;SDS011;6587;42.728;23.288;2023-09-12T00:01:41;7.17;;;4.40;;
13040;SDS011;6587;42.728;23.288;2023-09-12T00:04:08;7.97;;;5.07;;
13040;SDS011;6587;42.728;23.288;2023-09-12T00:06:36;6.90;;;4.43;;
13040;SDS011;6587;42.728;23.288;2023-09-12T00:09:03;10.10;;;4.70;;
13040;SDS011;6587;42.728;23.288;2023-09-12T00:11:30;6.93;;;4.80;;
13040;SDS011;6587;42.728;23.288;2023-09-12T00:13:57;7.33;;;4.73;;
13040;SDS011;6587;42.728;23.288;2023-09-12T00:16:25;6.93;;;4.70;;
13040;SDS011;6587;42.728;23.288;2023-09-12T00:18:53;8.17;;;4.60;;
13040;SDS011;6587;42.728;23.288;2023-09-12T00:21:19;6.13;;;4.63;;
13040;SDS011;6587;42.728;23.288;2023-09-12T00:23:46;6.37;;;4.83;;
13040;SDS011;6587;42.728;23.288;2023-09-12T00:26:13;8.83;;;4.97;;
13040;SDS011;6587;42.728;23.288;2023-09-12T00:28:41;5.10;;;4.50;;
13040;SDS011;6587;42.728;23.288;2023-09-12T00:31:08;10.37;;;4.77;;
13040;SDS011;6587;42.728;23.288;2023-09-12T00:33:34;9.10;;;5.50;;
13040;SDS011;6587;42.728;23.288;2023-09-12T00:36:02;8.53;;;5.20;;
13040;SDS011;6587;42.728;23.288;2023-09-12T00:38:29;7.30;;;5.03;;
13040;SDS011;6587;42.728;23.288;2023-09-12T00:40:56;7.97;;;5.17;;
13040;SDS011;6587;42.728;23.288;2023-09-12T00:43:22;11.13;;;5.10;;
13040;SDS011;6587;42.728;23.288;2023-09-12T00:45:49;6.43;;;4.73;;
13040;SDS011;6587;42.728;23.288;2023-09-12T00:48:16;8.37;;;5.13;;
13040;SDS011;6587;42.728;23.288;2023-09-12T00:50:43;6.27;;;4.97;;
13040;SDS011;6587;42.728;23.288;2023-09-12T00:53:13;7.57;;;5.03;;
13040;SDS011;6587;42.728;23.288;2023-09-12T00:55:42;9.37;;;5.50;;
13040;SDS011;6587;42.728;23.288;2023-09-12T00:58:10;7.23;;;5.63;;
13040;SDS011;6587;42.728;23.288;2023-09-12T01:00:36;10.07;;;6.10;;
13040;SDS011;6587;42.728;23.288;2023-09-12T01:03:03;7.27;;;4.77;;
13040;SDS011;6587;42.728;23.288;2023-09-12T01:05:31;7.77;;;5.10;;
13040;SDS011;6587;42.728;23.288;2023-09-12T01:07:59;8.33;;;4.80;;
13040;SDS011;6587;42.728;23.288;2023-09-12T01:10:27;7.13;;;5.03;;
13040;SDS011;6587;42.728;23.288;2023-09-12T01:12:53;8.83;;;4.93;;
13040;SDS011;6587;42.728;23.288;2023-09-12T01:15:20;9.40;;;5.00;;
13040;SDS011;6587;42.728;23.288;2023-09-12T01:17:47;6.10;;;4.67;;
13040;SDS011;6587;42.728;23.288;2023-09-12T01:20:16;8.30;;;5.23;;
13040;SDS011;6587;42.728;23.288;2023-09-12T01:23:06;8.57;;;4.90;;
13040;SDS011;6587;42.728;23.288;2023-09-12T01:28:18;8.03;;;5.13;;
13040;SDS011;6587;42.728;23.288;2023-09-12T01:30:48;10.67;;;5.37;;
13040;SDS011;6587;42.728;23.288;2023-09-12T01:33:15;7.97;;;4.93;;
13040;SDS011;6587;42.728;23.288;2023-09-12T01:35:41;8.70;;;5.10;;
13040;SDS011;6587;42.728;23.288;2023-09-12T01:38:08;7.53;;;4.70;;
13040;SDS011;6587;42.728;23.288;2023-09-12T01:40:37;9.03;;;4.93;;
13040;SDS011;6587;42.728;23.288;2023-09-12T01:43:05;6.73;;;4.90;;
13040;SDS011;6587;42.728;23.288;2023-09-12T01:45:34;9.43;;;4.80;;
13040;SDS011;6587;42.728;23.288;2023-09-12T01:48:02;8.37;;;4.97;;
13040;SDS011;6587;42.728;23.288;2023-09-12T01:50:29;6.50;;;4.77;;
13040;SDS011;6587;42.728;23.288;2023-09-12T01:52:57;8.30;;;4.50;;
13040;SDS011;6587;42.728;23.288;2023-09-12T01:55:24;8.40;;;4.90;;
13040;SDS011;6587;42.728;23.288;2023-09-12T01:57:51;6.43;;;4.73;;
13040;SDS011;6587;42.728;23.288;2023-09-12T02:00:17;7.43;;;5.17;;
13040;SDS011;6587;42.728;23.288;2023-09-12T02:02:45;6.57;;;4.63;;
13040;SDS011;6587;42.728;23.288;2023-09-12T02:05:14;9.33;;;4.60;;
13040;SDS011;6587;42.728;23.288;2023-09-12T02:07:43;8.27;;;4.47;;
13040;SDS011;6587;42.728;23.288;2023-09-12T02:10:10;6.70;;;4.60;;
13040;SDS011;6587;42.728;23.288;2023-09-12T02:12:37;8.20;;;4.43;;
13040;SDS011;6587;42.728;23.288;2023-09-12T02:15:06;8.20;;;4.80;;
13040;SDS011;6587;42.728;23.288;2023-09-12T02:17:33;7.47;;;4.93;;
13040;SDS011;6587;42.728;23.288;2023-09-12T02:20:01;7.03;;;4.83;;
13040;SDS011;6587;42.728;23.288;2023-09-12T02:22:29;6.10;;;4.37;;
13040;SDS011;6587;42.728;23.288;2023-09-12T02:24:56;5.90;;;4.30;;
13040;SDS011;6587;42.728;23.288;2023-09-12T02:27:23;5.27;;;4.37;;
13040;SDS011;6587;42.728;23.288;2023-09-12T02:29:49;6.70;;;4.70;;
13040;SDS011;6587;42.728;23.288;2023-09-12T02:32:16;6.10;;;4.53;;
13040;SDS011;6587;42.728;23.288;2023-09-12T02:34:42;8.63;;;5.00;;
13040;SDS011;6587;42.728;23.288;2023-09-12T02:37:10;9.13;;;4.60;;
13040;SDS011;6587;42.728;23.288;2023-09-12T02:39:37;5.87;;;4.60;;
13040;SDS011;6587;42.728;23.288;2023-09-12T02:42:04;6.17;;;4.90;;
13040;SDS011;6587;42.728;23.288;2023-09-12T02:44:31;7.63;;;4.70;;
13040;SDS011;6587;42.728;23.288;2023-09-12T02:46:58;10.27;;;5.33;;
13040;SDS011;6587;42.728;23.288;2023-09-12T02:49:24;6.93;;;5.20;;
13040;SDS011;6587;42.728;23.288;2023-09-12T02:51:51;10.37;;;4.63;;
13040;SDS011;6587;42.728;23.288;2023-09-12T02:54:19;8.17;;;4.90;;
13040;SDS011;6587;42.728;23.288;2023-09-12T02:56:46;7.37;;;5.00;;
13040;SDS011;6587;42.728;23.288;2023-09-12T02:59:12;8.50;;;5.00;;
13040;SDS011;6587;42.728;23.288;2023-09-12T03:01:39;8.07;;;4.73;;
13040;SDS011;6587;42.728;23.288;2023-09-12T03:04:06;14.93;;;5.50;;
13040;SDS011;6587;42.728;23.288;2023-09-12T03:06:33;14.17;;;5.90;;
13040;SDS011;6587;42.728;23.288;2023-09-12T03:09:00;12.80;;;6.33;;
13040;SDS011;6587;42.728;23.288;2023-09-12T03:11:29;11.67;;;5.90;;
13040;SDS011;6587;42.728;23.288;2023-09-12T03:13:56;11.43;;;5.50;;
13040;SDS011;6587;42.728;23.288;2023-09-12T03:16:23;10.93;;;5.60;;
13040;SDS011;6587;42.728;23.288;2023-09-12T03:18:50;13.23;;;5.43;;
13040;SDS011;6587;42.728;23.288;2023-09-12T03:21:17;10.80;;;5.20;;
13040;SDS011;6587;42.728;23.288;2023-09-12T03:23:43;13.50;;;5.50;;
13040;SDS011;6587;42.728;23.288;2023-09-12T03:26:10;14.43;;;5.37;;
13040;SDS011;6587;42.728;23.288;2023-09-12T03:28:39;9.57;;;5.23;;
13040;SDS011;6587;42.728;23.288;2023-09-12T03:31:07;10.33;;;5.63;;
13040;SDS011;6587;42.728;23.288;2023-09-12T03:33:34;8.43;;;5.30;;
13040;SDS011;6587;42.728;23.288;2023-09-12T03:36:01;9.07;;;5.63;;
13040;SDS011;6587;42.728;23.288;2023-09-12T03:38:27;11.90;;;5.87;;
13040;SDS011;6587;42.728;23.288;2023-09-12T03:40:54;10.50;;;5.50;;
13040;SDS011;6587;42.728;23.288;2023-09-12T03:43:21;20.13;;;6.87;;
13040;SDS011;6587;42.728;23.288;2023-09-12T03:45:49;12.77;;;6.17;;
13040;SDS011;6587;42.728;23.288;2023-09-12T03:48:16;13.80;;;6.00;;
13040;SDS011;6587;42.728;23.288;2023-09-12T03:50:42;12.80;;;5.90;;
13040;SDS011;6587;42.728;23.288;2023-09-12T03:53:09;9.63;;;5.33;;
13040;SDS011;6587;42.728;23.288;2023-09-12T03:55:36;7.33;;;5.73;;
13040;SDS011;6587;42.728;23.288;2023-09-12T03:58:03;9.27;;;5.87;;
13040;SDS011;6587;42.728;23.288;2023-09-12T04:00:30;9.47;;;5.57;;
13040;SDS011;6587;42.728;23.288;2023-09-12T04:02:58;11.20;;;5.47;;
13040;SDS011;6587;42.728;23.288;2023-09-12T04:05:25;10.20;;;5.77;;
13040;SDS011;6587;42.728;23.288;2023-09-12T04:07:51;14.50;;;6.47;;
13040;SDS011;6587;42.728;23.288;2023-09-12T04:10:19;11.47;;;6.00;;
13040;SDS011;6587;42.728;23.288;2023-09-12T04:12:46;12.43;;;6.30;;
13040;SDS011;6587;42.728;23.288;2023-09-12T04:15:13;9.10;;;5.70;;
13040;SDS011;6587;42.728;23.288;2023-09-12T04:17:39;11.40;;;6.00;;
13040;SDS011;6587;42.728;23.288;2023-09-12T04:20:07;8.97;;;5.63;;
13040;SDS011;6587;42.728;23.288;2023-09-12T04:22:35;10.57;;;5.50;;
13040;SDS011;6587;42.728;23.288;2023-09-12T04:25:03;11.70;;;5.87;;
13040;SDS011;6587;42.728;23.288;2023-09-12T04:27:29;13.33;;;6.43;;
13040;SDS011;6587;42.728;23.288;2023-09-12T04:29:56;11.50;;;5.57;;
13040;SDS011;6587;42.728;23.288;2023-09-12T04:32:23;12.30;;;6.27;;
13040;SDS011;6587;42.728;23.288;2023-09-12T04:34:50;12.73;;;6.53;;
13040;SDS011;6587;42.728;23.288;2023-09-12T04:37:18;8.83;;;5.77;;
13040;SDS011;6587;42.728;23.288;2023-09-12T04:39:45;18.13;;;6.47;;
13040;SDS011;6587;42.728;23.288;2023-09-12T04:42:12;9.20;;;6.00;;
13040;SDS011;6587;42.728;23.288;2023-09-12T04:44:38;12.30;;;5.83;;
13040;SDS011;6587;42.728;23.288;2023-09-12T04:47:05;9.33;;;6.13;;
13040;SDS011;6587;42.728;23.288;2023-09-12T04:49:32;18.03;;;6.50;;
13040;SDS011;6587;42.728;23.288;2023-09-12T04:51:59;12.20;;;6.30;;
13040;SDS011;6587;42.728;23.288;2023-09-12T04:54:27;20.40;;;6.40;;
13040;SDS011;6587;42.728;23.288;2023-09-12T04:56:54;14.40;;;7.17;;
13040;SDS011;6587;42.728;23.288;2023-09-12T04:59:20;11.77;;;6.40;;
13040;SDS011;6587;42.728;23.288;2023-09-12T05:01:47;12.33;;;6.17;;
13040;SDS011;6587;42.728;23.288;2023-09-12T05:04:15;15.93;;;6.70;;
13040;SDS011;6587;42.728;23.288;2023-09-12T05:06:41;10.77;;;7.00;;
13040;SDS011;6587;42.728;23.288;2023-09-12T05:09:08;12.97;;;6.87;;
13040;SDS011;6587;42.728;23.288;2023-09-12T05:11:37;13.63;;;6.80;;
13040;SDS011;6587;42.728;23.288;2023-09-12T05:14:04;17.43;;;7.53;;
13040;SDS011;6587;42.728;23.288;2023-09-12T05:16:31;19.13;;;9.20;;
13040;SDS011;6587;42.728;23.288;2023-09-12T05:18:57;19.47;;;11.27;;
13040;SDS011;6587;42.728;23.288;2023-09-12T05:21:24;21.43;;;11.17;;
13040;SDS011;6587;42.728;23.288;2023-09-12T05:23:51;25.00;;;11.20;;
13040;SDS011;6587;42.728;23.288;2023-09-12T05:26:17;21.67;;;9.63;;
13040;SDS011;6587;42.728;23.288;2023-09-12T05:28:46;13.13;;;8.37;;
13040;SDS011;6587;42.728;23.288;2023-09-12T05:31:13;16.00;;;9.57;;
13040;SDS011;6587;42.728;23.288;2023-09-12T05:33:39;19.13;;;8.37;;
13040;SDS011;6587;42.728;23.288;2023-09-12T05:36:06;9.83;;;6.20;;
13040;SDS011;6587;42.728;23.288;2023-09-12T05:38:33;8.73;;;5.77;;
13040;SDS011;6587;42.728;23.288;2023-09-12T05:40:59;12.93;;;6.50;;
13040;SDS011;6587;42.728;23.288;2023-09-12T05:43:28;10.90;;;6.53;;
13040;SDS011;6587;42.728;23.288;2023-09-12T05:45:55;14.83;;;6.50;;
13040;SDS011;6587;42.728;23.288;2023-09-12T05:48:23;10.60;;;6.83;;
13040;SDS011;6587;42.728;23.288;2023-09-12T05:50:50;10.10;;;6.47;;
13040;SDS011;6587;42.728;23.288;2023-09-12T05:53:17;9.93;;;6.67;;
13040;SDS011;6587;42.728;23.288;2023-09-12T05:55:43;8.70;;;6.50;;
13040;SDS011;6587;42.728;23.288;2023-09-12T05:58:11;11.03;;;6.30;;
13040;SDS011;6587;42.728;23.288;2023-09-12T06:00:37;10.13;;;6.07;;
13040;SDS011;6587;42.728;23.288;2023-09-12T06:03:05;9.80;;;5.93;;
13040;SDS011;6587;42.728;23.288;2023-09-12T06:05:32;12.63;;;5.73;;
13040;SDS011;6587;42.728;23.288;2023-09-12T06:07:58;10.40;;;5.83;;
13040;SDS011;6587;42.728;23.288;2023-09-12T06:10:25;7.90;;;4.90;;
13040;SDS011;6587;42.728;23.288;2023-09-12T06:12:52;9.30;;;5.23;;
13040;SDS011;6587;42.728;23.288;2023-09-12T06:15:18;9.77;;;5.30;;
13040;SDS011;6587;42.728;23.288;2023-09-12T06:17:45;9.50;;;5.60;;
13040;SDS011;6587;42.728;23.288;2023-09-12T06:20:13;8.33;;;5.47;;
13040;SDS011;6587;42.728;23.288;2023-09-12T06:22:40;10.83;;;6.23;;
13040;SDS011;6587;42.728;23.288;2023-09-12T06:25:08;7.87;;;5.97;;
13040;SDS011;6587;42.728;23.288;2023-09-12T06:27:35;11.90;;;6.40;;
13040;SDS011;6587;42.728;23.288;2023-09-12T06:30:01;12.67;;;7.03;;
13040;SDS011;6587;42.728;23.288;2023-09-12T06:32:28;12.20;;;8.43;;
13040;SDS011;6587;42.728;23.288;2023-09-12T06:34:55;13.67;;;8.03;;
13040;SDS011;6587;42.728;23.288;2023-09-12T06:37:23;20.80;;;8.43;;
13040;SDS011;6587;42.728;23.288;2023-09-12T06:39:49;21.07;;;8.40;;
13040;SDS011;6587;42.728;23.288;2023-09-12T06:42:16;25.20;;;8.00;;
13040;SDS011;6587;42.728;23.288;2023-09-12T06:44:43;17.53;;;7.60;;
13040;SDS011;6587;42.728;23.288;2023-09-12T06:47:10;14.87;;;6.47;;
13040;SDS011;6587;42.728;23.288;2023-09-12T06:49:36;15.20;;;6.67;;
13040;SDS011;6587;42.728;23.288;2023-09-12T06:52:04;10.97;;;6.50;;
13040;SDS011;6587;42.728;23.288;2023-09-12T06:54:32;18.50;;;6.10;;
13040;SDS011;6587;42.728;23.288;2023-09-12T06:56:59;12.23;;;6.00;;
13040;SDS011;6587;42.728;23.288;2023-09-12T06:59:25;11.57;;;6.17;;
13040;SDS011;6587;42.728;23.288;2023-09-12T07:01:52;9.80;;;5.97;;
13040;SDS011;6587;42.728;23.288;2023-09-12T07:04:19;13.30;;;5.90;;
13040;SDS011;6587;42.728;23.288;2023-09-12T07:06:45;8.83;;;5.20;;
13040;SDS011;6587;42.728;23.288;2023-09-12T07:09:12;6.90;;;4.97;;
13040;SDS011;6587;42.728;23.288;2023-09-12T07:11:41;9.83;;;5.03;;
13040;SDS011;6587;42.728;23.288;2023-09-12T07:14:07;9.23;;;5.23;;
13040;SDS011;6587;42.728;23.288;2023-09-12T07:16:35;9.73;;;5.13;;
13040;SDS011;6587;42.728;23.288;2023-09-12T07:19:01;10.10;;;5.47;;
13040;SDS011;6587;42.728;23.288;2023-09-12T07:21:28;7.80;;;4.70;;
13040;SDS011;6587;42.728;23.288;2023-09-12T07:23:55;9.17;;;5.30;;
13040;SDS011;6587;42.728;23.288;2023-09-12T07:26:22;10.13;;;5.10;;
13040;SDS011;6587;42.728;23.288;2023-09-12T07:28:50;8.67;;;4.57;;
13040;SDS011;6587;42.728;23.288;2023-09-12T07:31:16;11.43;;;4.70;;
13040;SDS011;6587;42.728;23.288;2023-09-12T07:33:43;10.87;;;5.90;;
13040;SDS011;6587;42.728;23.288;2023-09-12T07:36:10;8.20;;;4.10;;
13040;SDS011;6587;42.728;23.288;2023-09-12T07:38:37;10.87;;;4.53;;
13040;SDS011;6587;42.728;23.288;2023-09-12T07:41:04;9.40;;;4.00;;
13040;SDS011;6587;42.728;23.288;2023-09-12T07:43:30;10.27;;;4.53;;
13040;SDS011;6587;42.728;23.288;2023-09-12T07:45:58;7.03;;;3.87;;
13040;SDS011;6587;42.728;23.288;2023-09-12T07:48:25;7.33;;;3.93;;
13040;SDS011;6587;42.728;23.288;2023-09-12T07:50:52;7.43;;;4.60;;
13040;SDS011;6587;42.728;23.288;2023-09-12T07:53:20;11.20;;;4.20;;
13040;SDS011;6587;42.728;23.288;2023-09-12T07:55:47;9.23;;;5.13;;
13040;SDS011;6587;42.728;23.288;2023-09-12T07:58:14;8.30;;;4.20;;
13040;SDS011;6587;42.728;23.288;2023-09-12T08:00:41;11.07;;;3.73;;
13040;SDS011;6587;42.728;23.288;2023-09-12T08:03:09;7.07;;;4.10;;
13040;SDS011;6587;42.728;23.288;2023-09-12T08:05:36;9.43;;;3.47;;
13040;SDS011;6587;42.728;23.288;2023-09-12T08:08:03;7.00;;;3.63;;
13040;SDS011;6587;42.728;23.288;2023-09-12T08:10:30;9.32;;;4.25;;
13040;SDS011;6587;42.728;23.288;2023-09-12T08:12:57;7.72;;;3.70;;
13040;SDS011;6587;42.728;23.288;2023-09-12T08:15:23;9.25;;;4.22;;
13040;SDS011;6587;42.728;23.288;2023-09-12T08:17:50;5.68;;;3.97;;
13040;SDS011;6587;42.728;23.288;2023-09-12T08:20:20;7.15;;;3.60;;
13040;SDS011;6587;42.728;23.288;2023-09-12T08:22:46;6.20;;;3.53;;
13040;SDS011;6587;42.728;23.288;2023-09-12T08:25:13;5.40;;;4.20;;
13040;SDS011;6587;42.728;23.288;2023-09-12T08:27:40;7.38;;;4.30;;
13040;SDS011;6587;42.728;23.288;2023-09-12T08:30:09;6.15;;;4.40;;
13040;SDS011;6587;42.728;23.288;2023-09-12T08:32:36;7.55;;;3.67;;
13040;SDS011;6587;42.728;23.288;2023-09-12T08:35:05;9.57;;;4.32;;
13040;SDS011;6587;42.728;23.288;2023-09-12T08:37:33;12.35;;;4.50;;
13040;SDS011;6587;42.728;23.288;2023-09-12T08:39:59;10.25;;;3.90;;
13040;SDS011;6587;42.728;23.288;2023-09-12T08:42:26;5.63;;;3.60;;
13040;SDS011;6587;42.728;23.288;2023-09-12T08:44:53;8.55;;;3.70;;
13040;SDS011;6587;42.728;23.288;2023-09-12T08:47:20;7.80;;;3.90;;
13040;SDS011;6587;42.728;23.288;2023-09-12T08:49:48;6.28;;;3.88;;
13040;SDS011;6587;42.728;23.288;2023-09-12T08:52:15;9.35;;;3.30;;
13040;SDS011;6587;42.728;23.288;2023-09-12T08:54:43;9.65;;;3.65;;
13040;SDS011;6587;42.728;23.288;2023-09-12T08:57:10;6.75;;;3.70;;
13040;SDS011;6587;42.728;23.288;2023-09-12T08:59:37;9.40;;;3.50;;
13040;SDS011;6587;42.728;23.288;2023-09-12T09:02:04;8.50;;;3.35;;
13040;SDS011;6587;42.728;23.288;2023-09-12T09:04:32;7.88;;;3.60;;
13040;SDS011;6587;42.728;23.288;2023-09-12T09:06:59;39.50;;;8.57;;
13040;SDS011;6587;42.728;23.288;2023-09-12T09:09:26;4.93;;;3.58;;
13040;SDS011;6587;42.728;23.288;2023-09-12T09:11:55;6.15;;;3.17;;
13040;SDS011;6587;42.728;23.288;2023-09-12T09:14:21;6.40;;;3.30;;
13040;SDS011;6587;42.728;23.288;2023-09-12T09:16:48;7.35;;;3.72;;
13040;SDS011;6587;42.728;23.288;2023-09-12T09:19:15;6.57;;;3.53;;
13040;SDS011;6587;42.728;23.288;2023-09-12T09:21:43;4.20;;;2.95;;
13040;SDS011;6587;42.728;23.288;2023-09-12T09:24:10;7.00;;;3.38;;
13040;SDS011;6587;42.728;23.288;2023-09-12T09:26:44;6.32;;;3.40;;
13040;SDS011;6587;42.728;23.288;2023-09-12T09:29:13;4.20;;;3.35;;
13040;SDS011;6587;42.728;23.288;2023-09-12T09:31:40;6.82;;;3.17;;
13040;SDS011;6587;42.728;23.288;2023-09-12T09:34:10;6.85;;;3.70;;
13040;SDS011;6587;42.728;23.288;2023-09-12T09:36:36;5.30;;;3.10;;
13040;SDS011;6587;42.728;23.288;2023-09-12T09:39:06;9.32;;;2.83;;
13040;SDS011;6587;42.728;23.288;2023-09-12T09:41:33;7.05;;;3.00;;
13040;SDS011;6587;42.728;23.288;2023-09-12T09:44:00;4.93;;;3.10;;
13040;SDS011;6587;42.728;23.288;2023-09-12T09:46:28;7.00;;;3.13;;
13040;SDS011;6587;42.728;23.288;2023-09-12T09:48:54;8.77;;;2.97;;
13040;SDS011;6587;42.728;23.288;2023-09-12T09:51:21;8.45;;;3.25;;
13040;SDS011;6587;42.728;23.288;2023-09-12T09:53:50;5.90;;;3.22;;
13040;SDS011;6587;42.728;23.288;2023-09-12T09:56:17;4.28;;;2.78;;
13040;SDS011;6587;42.728;23.288;2023-09-12T09:58:47;6.00;;;3.17;;
13040;SDS011;6587;42.728;23.288;2023-09-12T10:01:15;5.50;;;2.90;;
13040;SDS011;6587;42.728;23.288;2023-09-12T10:03:44;9.10;;;3.17;;
13040;SDS011;6587;42.728;23.288;2023-09-12T10:06:12;5.30;;;3.10;;
13040;SDS011;6587;42.728;23.288;2023-09-12T10:08:39;3.65;;;3.00;;
13040;SDS011;6587;42.728;23.288;2023-09-12T10:11:07;10.00;;;3.60;;
13040;SDS011;6587;42.728;23.288;2023-09-12T10:13:34;5.63;;;3.08;;
13040;SDS011;6587;42.728;23.288;2023-09-12T10:16:02;7.93;;;3.38;;
13040;SDS011;6587;42.728;23.288;2023-09-12T10:18:29;5.38;;;3.00;;
13040;SDS011;6587;42.728;23.288;2023-09-12T10:21:03;7.13;;;3.30;;
13040;SDS011;6587;42.728;23.288;2023-09-12T10:23:33;5.88;;;3.60;;
13040;SDS011;6587;42.728;23.288;2023-09-12T10:26:02;5.47;;;3.63;;
13040;SDS011;6587;42.728;23.288;2023-09-12T10:28:29;7.18;;;3.70;;
13040;SDS011;6587;42.728;23.288;2023-09-12T10:30:57;4.38;;;3.50;;
13040;SDS011;6587;42.728;23.288;2023-09-12T10:33:23;5.70;;;3.65;;
13040;SDS011;6587;42.728;23.288;2023-09-12T10:35:51;6.63;;;3.08;;
13040;SDS011;6587;42.728;23.288;2023-09-12T10:38:19;8.50;;;3.60;;
13040;SDS011;6587;42.728;23.288;2023-09-12T10:40:47;6.65;;;3.45;;
13040;SDS011;6587;42.728;23.288;2023-09-12T10:43:14;10.90;;;3.95;;
13040;SDS011;6587;42.728;23.288;2023-09-12T10:45:41;7.50;;;3.58;;
13040;SDS011;6587;42.728;23.288;2023-09-12T10:48:09;7.32;;;3.40;;
13040;SDS011;6587;42.728;23.288;2023-09-12T10:50:36;7.20;;;3.80;;
13040;SDS011;6587;42.728;23.288;2023-09-12T10:53:10;6.93;;;3.70;;
13040;SDS011;6587;42.728;23.288;2023-09-12T10:55:38;10.75;;;4.50;;
13040;SDS011;6587;42.728;23.288;2023-09-12T10:58:07;5.28;;;3.60;;
13040;SDS011;6587;42.728;23.288;2023-09-12T11:00:35;6.95;;;4.03;;
13040;SDS011;6587;42.728;23.288;2023-09-12T11:05:52;8.55;;;3.88;;
13040;SDS011;6587;42.728;23.288;2023-09-12T11:08:19;11.18;;;5.15;;
13040;SDS011;6587;42.728;23.288;2023-09-12T11:10:57;8.77;;;5.05;;
13040;SDS011;6587;42.728;23.288;2023-09-12T11:13:42;3.65;;;2.92;;
13040;SDS011;6587;42.728;23.288;2023-09-12T11:16:10;5.82;;;3.05;;
13040;SDS011;6587;42.728;23.288;2023-09-12T11:21:23;6.40;;;4.88;;
13040;SDS011;6587;42.728;23.288;2023-09-12T11:23:58;5.70;;;3.63;;
13040;SDS011;6587;42.728;23.288;2023-09-12T11:26:26;8.20;;;3.65;;
13040;SDS011;6587;42.728;23.288;2023-09-12T11:28:53;5.88;;;3.83;;
13040;SDS011;6587;42.728;23.288;2023-09-12T11:31:24;6.03;;;3.58;;
13040;SDS011;6587;42.728;23.288;2023-09-12T11:33:51;7.15;;;4.05;;
13040;SDS011;6587;42.728;23.288;2023-09-12T11:36:18;6.47;;;3.65;;
13040;SDS011;6587;42.728;23.288;2023-09-12T11:38:48;8.77;;;4.53;;
13040;SDS011;6587;42.728;23.288;2023-09-12T11:41:28;8.15;;;3.65;;
13040;SDS011;6587;42.728;23.288;2023-09-12T11:44:05;8.18;;;4.25;;
13040;SDS011;6587;42.728;23.288;2023-09-12T11:46:33;7.13;;;3.63;;
13040;SDS011;6587;42.728;23.288;2023-09-12T11:49:00;7.45;;;3.28;;
13040;SDS011;6587;42.728;23.288;2023-09-12T11:51:27;6.53;;;3.60;;
13040;SDS011;6587;42.728;23.288;2023-09-12T11:53:55;8.18;;;3.35;;
13040;SDS011;6587;42.728;23.288;2023-09-12T11:56:25;7.55;;;3.47;;
13040;SDS011;6587;42.728;23.288;2023-09-12T11:58:54;5.50;;;4.05;;
13040;SDS011;6587;42.728;23.288;2023-09-12T12:01:21;5.43;;;3.15;;
13040;SDS011;6587;42.728;23.288;2023-09-12T12:03:48;5.97;;;3.50;;
13040;SDS011;6587;42.728;23.288;2023-09-12T12:06:18;7.28;;;3.17;;
13040;SDS011;6587;42.728;23.288;2023-09-12T12:08:45;11.13;;;3.40;;
13040;SDS011;6587;42.728;23.288;2023-09-12T12:11:11;6.22;;;3.65;;
13040;SDS011;6587;42.728;23.288;2023-09-12T12:13:38;5.63;;;3.38;;
13040;SDS011;6587;42.728;23.288;2023-09-12T12:16:15;7.07;;;3.30;;
13040;SDS011;6587;42.728;23.288;2023-09-12T12:18:42;8.20;;;4.25;;
13040;SDS011;6587;42.728;23.288;2023-09-12T12:21:09;6.03;;;3.53;;
13040;SDS011;6587;42.728;23.288;2023-09-12T12:23:35;7.53;;;3.40;;
13040;SDS011;6587;42.728;23.288;2023-09-12T12:26:02;7.05;;;3.50;;
13040;SDS011;6587;42.728;23.288;2023-09-12T12:28:30;5.93;;;2.95;;
13040;SDS011;6587;42.728;23.288;2023-09-12T12:30:58;9.00;;;2.97;;
13040;SDS011;6587;42.728;23.288;2023-09-12T12:33:26;6.00;;;3.13;;
13040;SDS011;6587;42.728;23.288;2023-09-12T12:35:58;7.70;;;3.45;;
13040;SDS011;6587;42.728;23.288;2023-09-12T12:38:25;8.15;;;3.78;;
13040;SDS011;6587;42.728;23.288;2023-09-12T12:40:52;6.65;;;3.38;;
13040;SDS011;6587;42.728;23.288;2023-09-12T12:43:19;6.75;;;3.38;;
13040;SDS011;6587;42.728;23.288;2023-09-12T12:45:52;5.82;;;3.20;;
13040;SDS011;6587;42.728;23.288;2023-09-12T12:48:30;6.57;;;3.28;;
13040;SDS011;6587;42.728;23.288;2023-09-12T12:50:57;7.78;;;3.00;;
13040;SDS011;6587;42.728;23.288;2023-09-12T12:53:37;6.72;;;3.45;;
13040;SDS011;6587;42.728;23.288;2023-09-12T12:56:03;7.28;;;3.13;;
13040;SDS011;6587;42.728;23.288;2023-09-12T12:58:30;6.75;;;3.20;;
13040;SDS011;6587;42.728;23.288;2023-09-12T13:00:57;5.07;;;3.38;;
13040;SDS011;6587;42.728;23.288;2023-09-12T13:03:23;5.18;;;3.40;;
13040;SDS011;6587;42.728;23.288;2023-09-12T13:05:51;5.45;;;3.35;;
13040;SDS011;6587;42.728;23.288;2023-09-12T13:08:18;7.93;;;3.60;;
13040;SDS011;6587;42.728;23.288;2023-09-12T13:10:45;8.65;;;3.15;;
13040;SDS011;6587;42.728;23.288;2023-09-12T13:13:11;7.25;;;3.42;;
13040;SDS011;6587;42.728;23.288;2023-09-12T13:15:38;5.55;;;3.22;;
13040;SDS011;6587;42.728;23.288;2023-09-12T13:18:05;7.68;;;3.28;;
13040;SDS011;6587;42.728;23.288;2023-09-12T13:20:31;8.20;;;3.50;;
13040;SDS011;6587;42.728;23.288;2023-09-12T13:22:59;7.53;;;2.95;;
13040;SDS011;6587;42.728;23.288;2023-09-12T13:25:26;9.77;;;3.20;;
13040;SDS011;6587;42.728;23.288;2023-09-12T13:27:52;7.97;;;3.22;;
13040;SDS011;6587;42.728;23.288;2023-09-12T13:30:19;8.35;;;3.53;;
13040;SDS011;6587;42.728;23.288;2023-09-12T13:32:45;5.65;;;2.60;;
13040;SDS011;6587;42.728;23.288;2023-09-12T13:35:12;5.05;;;3.10;;
13040;SDS011;6587;42.728;23.288;2023-09-12T13:37:39;7.65;;;3.38;;
13040;SDS011;6587;42.728;23.288;2023-09-12T13:40:08;4.25;;;3.17;;
13040;SDS011;6587;42.728;23.288;2023-09-12T13:42:34;5.90;;;3.13;;
13040;SDS011;6587;42.728;23.288;2023-09-12T13:45:01;8.52;;;4.07;;
13040;SDS011;6587;42.728;23.288;2023-09-12T13:47:28;7.75;;;3.47;;
13040;SDS011;6587;42.728;23.288;2023-09-12T13:49:54;5.93;;;3.10;;
13040;SDS011;6587;42.728;23.288;2023-09-12T13:52:22;6.07;;;3.15;;
13040;SDS011;6587;42.728;23.288;2023-09-12T13:54:48;7.20;;;3.10;;
13040;SDS011;6587;42.728;23.288;2023-09-12T13:57:16;5.18;;;3.33;;
13040;SDS011;6587;42.728;23.288;2023-09-12T13:59:43;7.57;;;3.72;;
13040;SDS011;6587;42.728;23.288;2023-09-12T14:02:10;4.45;;;3.13;;
13040;SDS011;6587;42.728;23.288;2023-09-12T14:04:37;8.35;;;3.50;;
13040;SDS011;6587;42.728;23.288;2023-09-12T14:07:04;7.63;;;3.45;;
13040;SDS011;6587;42.728;23.288;2023-09-12T14:09:30;4.43;;;3.30;;
13040;SDS011;6587;42.728;23.288;2023-09-12T14:11:57;7.25;;;3.80;;
13040;SDS011;6587;42.728;23.288;2023-09-12T14:14:25;5.15;;;3.10;;
13040;SDS011;6587;42.728;23.288;2023-09-12T14:16:52;5.75;;;3.05;;
13040;SDS011;6587;42.728;23.288;2023-09-12T14:19:19;8.07;;;3.45;;
13040;SDS011;6587;42.728;23.288;2023-09-12T14:21:45;6.13;;;3.30;;
13040;SDS011;6587;42.728;23.288;2023-09-12T14:24:12;6.97;;;3.55;;
13040;SDS011;6587;42.728;23.288;2023-09-12T14:26:39;8.95;;;3.45;;
13040;SDS011;6587;42.728;23.288;2023-09-12T14:29:05;5.10;;;3.47;;
13040;SDS011;6587;42.728;23.288;2023-09-12T14:31:33;7.40;;;3.50;;
13040;SDS011;6587;42.728;23.288;2023-09-12T14:34:02;6.28;;;3.40;;
13040;SDS011;6587;42.728;23.288;2023-09-12T14:36:30;4.97;;;3.08;;
13040;SDS011;6587;42.728;23.288;2023-09-12T14:38:57;8.40;;;3.38;;
13040;SDS011;6587;42.728;23.288;2023-09-12T14:41:23;8.05;;;3.35;;
13040;SDS011;6587;42.728;23.288;2023-09-12T14:43:50;4.97;;;3.20;;
13040;SDS011;6587;42.728;23.288;2023-09-12T14:46:16;4.10;;;3.40;;
13040;SDS011;6587;42.728;23.288;2023-09-12T14:48:44;4.75;;;4.07;;
13040;SDS011;6587;42.728;23.288;2023-09-12T14:51:11;8.02;;;4.20;;
13040;SDS011;6587;42.728;23.288;2023-09-12T14:53:37;8.43;;;4.03;;